TimeEDT,TemperatureF,Dew PointF,Humidity,Sea Level PressureIn,VisibilityMPH,Wind Direction,Wind SpeedMPH,Gust SpeedMPH,PrecipitationIn,Events,Conditions,WindDirDegrees,DateUTC
12:53 AM,66.0,54.0,65,30.01,10.0,SSE,9.2,-,N/A,,Clear,150,2013-05-01 04:53:00
1:53 AM,64.0,53.1,67,30.03,10.0,SSE,5.8,-,N/A,,Clear,150,2013-05-01 05:53:00
2:53 AM,62.1,51.1,67,30.04,10.0,SSE,4.6,-,N/A,,Clear,150,2013-05-01 06:53:00
3:53 AM,61.0,51.1,70,30.05,10.0,SSE,4.6,-,N/A,,Clear,160,2013-05-01 07:53:00
4:53 AM,57.9,50.0,75,30.07,10.0,Calm,Calm,-,N/A,,Clear,0,2013-05-01 08:53:00
5:53 AM,57.9,50.0,75,30.08,10.0,SE,3.5,-,N/A,,Clear,130,2013-05-01 09:53:00
6:53 AM,55.9,50.0,80,30.11,10.0,SE,5.8,-,N/A,,Clear,130,2013-05-01 10:53:00
7:53 AM,61.0,53.1,75,30.12,10.0,SE,5.8,-,N/A,,Clear,140,2013-05-01 11:53:00
8:53 AM,68.0,54.0,61,30.13,10.0,South,4.6,-,N/A,,Clear,180,2013-05-01 12:53:00
9:53 AM,72.0,54.0,53,30.14,10.0,South,4.6,-,N/A,,Clear,180,2013-05-01 13:53:00
10:53 AM,75.0,55.0,50,30.15,10.0,WSW,3.5,-,N/A,,Clear,250,2013-05-01 14:53:00
11:53 AM,78.1,54.0,43,30.14,10.0,South,6.9,-,N/A,,Clear,170,2013-05-01 15:53:00
12:53 PM,79.0,54.0,42,30.14,10.0,Calm,Calm,-,N/A,,Clear,0,2013-05-01 16:53:00
1:53 PM,81.0,54.0,39,30.14,10.0,SSE,6.9,-,N/A,,Clear,150,2013-05-01 17:53:00
2:53 PM,81.0,53.1,38,30.14,10.0,South,9.2,-,N/A,,Clear,180,2013-05-01 18:53:00
3:53 PM,82.0,53.1,37,30.14,10.0,SSE,9.2,-,N/A,,Clear,150,2013-05-01 19:53:00
4:53 PM,82.0,53.1,37,30.14,10.0,SSE,15.0,-,N/A,,Clear,160,2013-05-01 20:53:00
5:53 PM,82.0,54.0,38,30.15,10.0,SSE,11.5,19.6,N/A,,Clear,150,2013-05-01 21:53:00
6:53 PM,81.0,53.1,38,30.14,10.0,South,13.8,-,N/A,,Clear,170,2013-05-01 22:53:00
7:53 PM,78.1,53.1,42,30.14,10.0,SSE,9.2,-,N/A,,Clear,150,2013-05-01 23:53:00
8:53 PM,73.9,54.0,50,30.15,10.0,SE,4.6,-,N/A,,Clear,130,2013-05-02 00:53:00
9:53 PM,70.0,55.0,59,30.17,10.0,ESE,4.6,-,N/A,,Clear,110,2013-05-02 01:53:00
10:53 PM,71.1,54.0,55,30.17,10.0,ESE,4.6,-,N/A,,Unknown,120,2013-05-02 02:53:00
11:53 PM,68.0,54.0,61,30.16,10.0,ESE,6.9,-,N/A,,Clear,110,2013-05-02 03:53:00